Accueil
METAR-TAF:

METAR-TAF

Aéroports :

Aéroport de Vérone

Vérone, Italie

latitude: 45-23N, longitude: 010-52E, altitude: 67 m

Observation

Le bulletin a été fait il y a 11 minutes, à 06:20 UTC
Vent 2 kt de direction variable
Température 1°C
Humidité 93%
Pression 1019 hPa
Visibilité: 2500 m
bancs de brouillard

METAR: LIPX 270620Z VRB02KT 2500 BCFG NSC 01/00 Q1019

Heure: 07:31 (06:31 UTC)

Prévision

Le bulletin a été fait il y a 1 heure et 31 minutes, à 05:00 UTC
Prévision valable du 27 à 06 UTC au 27 à 15 UTC
Vent 5 kt de direction variable
Visibilité: 1500 m
bancs de brouillard
Temporairement
du 27 à 06 UTC au 27 à 08 UTC
Visibilité: 0600 m
Nuages fragmentés à une hauteur de 500 ft
brouillard
Evoluant progressivement
du 27 à 09 UTC au 27 à 11 UTC
Visibilité: 3000 m
brume

TAF: LIPX 270500Z 2706/2715 VRB05KT 1500 BCFG NSC TEMPO 2706/2708 0600 FG BKN005 BECMG 2709/2711 3000 BR

Observations et prévisions météorologiques de plus de 4000 aéroports (messages METAR et TAF).

Les stations disponibles sont représentées par des disques jaunes et rouges sur la carte.

Passer la souris dessus pour voir le nom de la station.

Cliquer dessus pour voir les observations et prévisions météorologiques.

Pour changer de carte: cliquez sur les boutons verts avec une croix noire pour zoomer, sur le bouton vert avec un tiret pour effectuer un zoom arrière, ou sur les flèches vertes pour les cartes adjacentes.


METAR-TAF: